LEIB Airport Information

Runway Information
Runway 06 Length 9186 ft width 148 ft
Elevation 13 ft Threshold 0 ft Heading 62
Runway 24 Length 9186 ft Width 148 ft
Elevation 16 ft Threshold 0 ft Heading 242
Airport Frequencies
Type APP Name PALMA APP Frequency 118.125 MHZ
Type APP Name APP Frequency 119.8 MHZ
Type ATIS Name ATIS Frequency 117.8 MHZ
Type GND Name GND Frequency 121.8 MHZ
Type TWR Name TWR Frequency 118.5 MHZ
Airport Navaids
Type VOR-DME Name Ibiza Frequency 117800 KHZ
Type NDB Name Ibiza Frequency 394 KHZ
Airport Weather Information & NOTAM
ADDS - METARS form results

(0324 UTC 24 September 2018)
Data provider http://aviationweather.gov/metar/data/
 
METAR text: LEIB 240300Z VRB01KT CAVOK 20/18 Q1020 NOSIG
Conditions at: LEIB (IBIZA/ES CODOLA , ES) observed 0300 UTC 24 September 2018
Temperature: 20.0°C (68°F)
Dewpoint: 18.0°C (64°F) [RH = 88%]
Pressure (altimeter): 30.12 inches Hg (1020.0 mb)
Winds: variable direction winds at 1 MPH (1 knots; 0.5 m/s)
Visibility: 6 or more miles (10+ km)
Ceiling: ceiling and visibility are OK
Clouds: unknown
Weather: no significant weather observed at this time

METAR text: LEIB 240230Z VRB02KT CAVOK 20/17 Q1020 NOSIG
Conditions at: LEIB (IBIZA/ES CODOLA , ES) observed 0230 UTC 24 September 2018
Temperature: 20.0°C (68°F)
Dewpoint: 17.0°C (63°F) [RH = 83%]
Pressure (altimeter): 30.12 inches Hg (1020.0 mb)
Winds: variable direction winds at 2 MPH (2 knots; 1.0 m/s)
Visibility: 6 or more miles (10+ km)
Ceiling: ceiling and visibility are OK
Clouds: unknown
Weather: no significant weather observed at this time

Forecast for: COR
Text: TAF COR LEIB 240211Z 2403/2503 VRB03KT CAVOK TX29/2412Z TN21/2405Z
Forecast period: 0300 to 0800 UTC 24 September 2018
Forecast type: FROM: standard forecast or significant change
Winds: variable direction winds at 3 MPH (3 knots; 1.5 m/s)
Visibility: 6 or more miles 10+ km)
Ceiling: unknown
Clouds: missing
Weather: no significant weather forecast for this period
Text: BECMG 2408/2410 09008KT
Forecast period: 0800 to 2000 UTC 24 September 2018
Forecast type: BECOMING: Conditions expected to become as follows by 1000 UTC 24 September 2018
Winds: from the E (90 degrees) at 9 MPH (8 knots; 4.1 m/s)
Visibility: 6 or more miles 10+ km)
Ceiling: unknown
Clouds: missing
Weather: no significant weather forecast for this period
Text: BECMG 2420/2422 09012KT
Forecast period: 2000 UTC 24 September 2018 to 0300 UTC 25 September 2018
Forecast type: BECOMING: Conditions expected to become as follows by 2200 UTC 24 September 2018
Winds: from the E (90 degrees) at 14 MPH (12 knots; 6.2 m/s)
Visibility: 6 or more miles 10+ km)
Ceiling: unknown
Clouds: missing
Weather: no significant weather forecast for this period